Time;durP1;ratioP1;P1;durP2;ratioP2;P2;SDS_P1;SDS_P2;PMS_P1;PMS_P2;Temp;Humidity;BMP_temperature;BMP_pressure;BME280_temperature;BME280_humidity;BME280_pressure;Samples;Min_cycle;Max_cycle;Signal;HPM_P1;HPM_P2
2023/07/24 00:00:20;;;;;;;;;5.00;4.00;;;;;21.63;63.50;100193.09;5057005;28;45385;-68
2023/07/24 00:02:45;;;;;;;;;1.00;1.00;;;;;21.54;63.26;100161.63;5073601;28;44977;-69
2023/07/24 00:05:11;;;;;;;;;4.67;2.33;;;;;21.66;63.06;100159.47;5073923;28;44948;-70
2023/07/24 00:07:36;;;;;;;;;3.33;2.67;;;;;21.63;62.88;100151.41;5073726;28;44945;-68
2023/07/24 00:10:02;;;;;;;;;4.00;2.67;;;;;21.64;62.94;100159.53;5074051;28;45237;-69
2023/07/24 00:12:28;;;;;;;;;4.67;4.67;;;;;21.67;62.97;100162.16;5069206;28;46402;-69
2023/07/24 00:14:53;;;;;;;;;3.00;3.00;;;;;21.69;63.04;100145.81;5073126;28;45193;-69
2023/07/24 00:17:19;;;;;;;;;5.00;3.33;;;;;21.39;62.55;100087.75;5072741;28;45202;-68
2023/07/24 00:19:44;;;;;;;;;4.67;3.00;;;;;21.67;62.68;100136.81;5074659;28;44897;-69
2023/07/24 00:22:09;;;;;;;;;1.67;1.67;;;;;21.68;62.63;100144.03;5073503;28;45975;-70
2023/07/24 00:24:35;;;;;;;;;5.33;4.00;;;;;21.65;62.48;100149.56;5072476;28;61534;-69
2023/07/24 00:27:00;;;;;;;;;4.00;2.00;;;;;21.63;62.80;100136.00;5073539;28;45068;-70
2023/07/24 00:29:25;;;;;;;;;3.00;2.67;;;;;21.63;62.70;100141.44;5066777;28;45040;-68
2023/07/24 00:31:51;;;;;;;;;3.67;2.00;;;;;21.66;62.63;100137.75;5073588;28;45726;-69
2023/07/24 00:34:16;;;;;;;;;4.00;3.00;;;;;21.64;62.50;100131.47;5062639;28;45465;-70
2023/07/24 00:36:41;;;;;;;;;2.00;2.00;;;;;21.60;62.39;100114.34;5055428;28;45760;-70
2023/07/24 00:39:07;;;;;;;;;2.00;2.00;;;;;21.64;62.24;100109.72;5043179;28;51733;-70
2023/07/24 00:41:32;;;;;;;;;3.33;3.00;;;;;21.64;62.33;100113.31;5057823;28;45349;-68
2023/07/24 00:43:57;;;;;;;;;2.00;2.00;;;;;21.66;62.02;100107.84;5054208;28;45450;-68
2023/07/24 00:46:24;;;;;;;;;3.00;3.00;;;;;21.65;61.95;100103.34;5060297;28;45477;-68
2023/07/24 00:48:50;;;;;;;;;2.00;2.00;;;;;21.64;61.77;100077.09;5055637;28;45203;-70
2023/07/24 00:51:16;;;;;;;;;3.33;2.00;;;;;21.61;61.48;100063.59;5067302;28;45809;-69
2023/07/24 00:53:42;;;;;;;;;6.33;5.00;;;;;21.62;61.44;100035.47;5075498;28;45185;-69
2023/07/24 00:56:07;;;;;;;;;3.33;2.33;;;;;21.70;61.46;100042.44;5075960;28;45016;-70
2023/07/24 00:58:36;;;;;;;;;3.33;3.33;;;;;21.72;61.01;100040.56;5073196;28;45143;-69
2023/07/24 01:01:02;;;;;;;;;3.00;3.00;;;;;21.71;60.74;100063.28;5067632;28;45575;-71
2023/07/24 01:03:33;;;;;;;;;2.00;2.00;;;;;21.75;60.78;100080.38;5073335;28;45366;-70
2023/07/24 01:06:00;;;;;;;;;3.00;3.00;;;;;21.70;60.24;100074.19;5072991;28;44895;-69
2023/07/24 01:08:27;;;;;;;;;4.67;3.00;;;;;21.66;60.49;100075.22;5066747;28;45615;-70
2023/07/24 01:10:54;;;;;;;;;2.67;2.33;;;;;21.60;59.97;100065.41;5071245;28;45145;-69
2023/07/24 01:13:24;;;;;;;;;3.00;3.00;;;;;21.71;59.83;100081.38;5071998;28;45140;-69
2023/07/24 01:16:02;;;;;;;;;6.00;3.33;;;;;21.74;59.55;100084.03;5072359;28;45200;-71
2023/07/24 01:18:30;;;;;;;;;2.33;2.00;;;;;21.75;59.63;100091.25;5047418;28;45045;-69
2023/07/24 01:20:58;;;;;;;;;3.33;2.00;;;;;21.74;59.26;100097.63;5071304;28;46148;-68
2023/07/24 01:23:37;;;;;;;;;4.33;4.33;;;;;21.70;59.22;100104.97;5072047;28;45262;-69
2023/07/24 01:26:03;;;;;;;;;4.33;4.33;;;;;21.70;59.10;100106.81;5071132;28;45016;-69
2023/07/24 01:28:28;;;;;;;;;2.33;2.33;;;;;21.59;58.93;100076.34;5070922;28;45234;-70
2023/07/24 01:30:54;;;;;;;;;5.00;3.00;;;;;21.70;59.05;100096.81;5070503;28;45719;-69
2023/07/24 01:33:21;;;;;;;;;4.33;3.00;;;;;21.72;58.86;100096.78;5068743;28;45088;-70
2023/07/24 01:35:50;;;;;;;;;3.00;2.33;;;;;21.63;59.37;100078.94;5052535;28;45402;-71
2023/07/24 01:38:16;;;;;;;;;5.00;3.33;;;;;21.69;58.72;100092.31;5053380;28;45281;-71
2023/07/24 01:40:42;;;;;;;;;3.67;2.00;;;;;21.65;58.50;100098.78;5072375;28;45648;-69
2023/07/24 01:43:07;;;;;;;;;2.33;2.33;;;;;21.64;58.74;100093.41;5045488;28;45046;-69
2023/07/24 01:45:33;;;;;;;;;4.00;3.00;;;;;21.62;58.96;100087.13;5069032;28;44980;-70
2023/07/24 01:47:59;;;;;;;;;2.00;2.00;;;;;21.54;58.69;100069.19;5070758;28;45133;-70
2023/07/24 01:50:25;;;;;;;;;5.00;3.00;;;;;21.25;58.83;100028.38;5070312;28;45639;-69
2023/07/24 01:52:50;;;;;;;;;4.33;2.67;;;;;21.49;58.92;100063.00;5068766;28;45222;-69
2023/07/24 01:55:15;;;;;;;;;2.00;2.00;;;;;21.51;58.66;100061.16;5060729;28;45311;-70
2023/07/24 01:57:41;;;;;;;;;3.33;3.33;;;;;21.53;58.73;100051.13;5055938;28;45477;-69
2023/07/24 02:00:07;;;;;;;;;3.67;3.67;;;;;21.50;58.40;100051.22;5063543;28;46319;-69
2023/07/24 02:02:32;;;;;;;;;3.33;3.33;;;;;21.51;58.73;100053.00;5071511;28;45221;-70
2023/07/24 02:04:57;;;;;;;;;4.33;4.00;;;;;21.40;59.33;100029.75;5066437;28;45149;-68
2023/07/24 02:07:23;;;;;;;;;3.00;3.00;;;;;21.57;59.72;100061.91;5071723;28;45610;-68
2023/07/24 02:09:48;;;;;;;;;5.67;3.33;;;;;21.53;59.29;100050.22;5063119;28;52675;-68
2023/07/24 02:12:13;;;;;;;;;4.33;3.00;;;;;21.60;59.24;100068.13;5065936;28;45303;-69
2023/07/24 02:14:39;;;;;;;;;3.00;3.00;;;;;21.62;59.95;100066.25;5062754;28;45757;-68
2023/07/24 02:17:04;;;;;;;;;4.67;4.67;;;;;21.65;60.70;100057.13;5071055;28;45011;-69
2023/07/24 02:19:30;;;;;;;;;3.67;1.00;;;;;21.51;59.97;100036.69;5072670;28;45068;-68
2023/07/24 02:21:55;;;;;;;;;6.00;3.00;;;;;21.60;60.31;100045.50;5071937;28;45131;-68
2023/07/24 02:24:21;;;;;;;;;4.67;3.33;;;;;21.43;60.95;100030.56;5072369;28;45125;-68
2023/07/24 02:26:46;;;;;;;;;3.33;3.33;;;;;21.49;60.97;100054.84;5073059;28;45079;-69
2023/07/24 02:29:11;;;;;;;;;4.00;3.00;;;;;21.51;61.01;100061.16;5068181;28;45557;-69
2023/07/24 02:31:37;;;;;;;;;5.33;3.67;;;;;21.46;60.71;100062.19;5068843;28;45487;-69
2023/07/24 02:34:02;;;;;;;;;4.00;4.00;;;;;21.44;61.26;100062.22;5072184;28;45170;-68
2023/07/24 02:36:27;;;;;;;;;6.67;4.33;;;;;21.40;61.75;100071.41;5071613;28;45305;-70
2023/07/24 02:38:53;;;;;;;;;6.33;4.33;;;;;21.40;61.41;100067.78;5071142;28;45065;-69
2023/07/24 02:41:18;;;;;;;;;4.00;4.00;;;;;21.37;61.53;100063.34;5068522;28;45021;-70
2023/07/24 02:43:44;;;;;;;;;4.67;4.67;;;;;21.36;61.32;100053.41;5071161;28;45175;-70
2023/07/24 02:46:09;;;;;;;;;5.33;4.00;;;;;21.29;62.17;100039.09;5070115;28;45134;-70
2023/07/24 02:48:34;;;;;;;;;4.00;4.00;;;;;21.30;61.49;100040.00;5053815;28;47535;-70
2023/07/24 02:51:00;;;;;;;;;6.00;4.33;;;;;21.33;61.17;100050.78;5070425;28;45123;-69
2023/07/24 02:53:25;;;;;;;;;4.67;4.67;;;;;21.31;60.96;100052.66;5065274;28;45016;-69
2023/07/24 02:55:50;;;;;;;;;6.33;5.33;;;;;21.29;61.18;100038.22;5072013;28;44989;-70
2023/07/24 02:58:16;;;;;;;;;6.00;4.00;;;;;21.28;61.21;100031.00;5071283;28;45682;-70
2023/07/24 03:00:41;;;;;;;;;3.00;3.00;;;;;21.26;61.31;100041.91;5071637;28;45139;-71
2023/07/24 03:03:06;;;;;;;;;5.67;4.00;;;;;21.30;61.83;100064.44;5070209;28;44923;-68
2023/07/24 03:05:34;;;;;;;;;2.00;2.00;;;;;21.30;62.08;100069.88;5071528;28;44962;-69
2023/07/24 03:07:59;;;;;;;;;3.00;3.00;;;;;21.25;61.61;100059.16;5069894;28;46134;-69
2023/07/24 03:10:25;;;;;;;;;2.00;2.00;;;;;21.14;61.95;100054.03;5068970;28;44933;-70
2023/07/24 03:12:50;;;;;;;;;5.00;4.67;;;;;21.14;63.13;100074.88;5070366;28;45217;-69
2023/07/24 03:15:16;;;;;;;;;6.00;3.67;;;;;21.10;63.96;100063.22;5069699;28;45299;-70
2023/07/24 03:17:41;;;;;;;;;3.00;3.00;;;;;21.10;64.08;100057.78;5069055;28;45532;-70
2023/07/24 03:20:16;;;;;;;;;2.67;2.67;;;;;20.82;64.45;100013.31;5068955;28;45041;-69
2023/07/24 03:22:43;;;;;;;;;3.67;3.00;;;;;21.09;64.62;100061.41;5070598;28;45487;-69
2023/07/24 03:25:08;;;;;;;;;5.00;4.00;;;;;20.98;64.73;100049.97;5071416;28;45218;-69
2023/07/24 03:27:34;;;;;;;;;5.00;4.00;;;;;21.01;64.70;100060.75;5068641;28;45871;-70
2023/07/24 03:29:59;;;;;;;;;3.33;2.67;;;;;20.91;64.36;100038.38;5051846;28;45065;-71
2023/07/24 03:32:24;;;;;;;;;3.00;3.00;;;;;20.95;64.80;100042.81;5070356;28;44999;-70
2023/07/24 03:34:50;;;;;;;;;5.00;4.00;;;;;20.96;65.06;100050.00;5070672;28;45055;-70
2023/07/24 03:37:15;;;;;;;;;6.00;4.00;;;;;20.90;64.75;100052.88;5068805;28;45639;-70
2023/07/24 03:39:40;;;;;;;;;4.00;4.00;;;;;20.87;65.07;100068.38;5069743;28;56350;-69
2023/07/24 03:42:09;;;;;;;;;1.33;1.33;;;;;20.80;65.40;100065.84;5069181;28;45408;-69
2023/07/24 03:44:34;;;;;;;;;5.00;5.00;;;;;20.79;65.85;100044.16;5067777;28;45093;-69
2023/07/24 03:47:00;;;;;;;;;4.33;3.67;;;;;20.62;65.92;100030.97;5067026;28;46480;-69
2023/07/24 03:49:25;;;;;;;;;5.00;3.67;;;;;20.70;66.27;100026.28;5069356;28;47702;-70
2023/07/24 03:51:50;;;;;;;;;4.67;3.00;;;;;20.78;65.92;100015.22;5070623;28;45257;-70
2023/07/24 03:54:15;;;;;;;;;3.00;3.00;;;;;20.71;65.94;100011.78;5070110;28;45024;-70
2023/07/24 03:56:41;;;;;;;;;3.67;3.67;;;;;20.73;66.53;100019.88;5069667;28;46085;-70
2023/07/24 03:59:06;;;;;;;;;4.00;4.00;;;;;20.59;66.57;100015.69;5068941;28;44901;-69
2023/07/24 04:01:31;;;;;;;;;5.00;3.00;;;;;20.57;67.09;100031.13;5069127;28;45109;-70
2023/07/24 04:03:58;;;;;;;;;5.33;4.00;;;;;20.56;67.40;100028.44;5073401;28;45107;-69
2023/07/24 04:06:24;;;;;;;;;4.00;2.67;;;;;20.53;67.85;100026.69;5074344;28;45276;-69
2023/07/24 04:08:49;;;;;;;;;3.00;2.67;;;;;20.52;67.69;100016.75;5071138;28;45350;-68
2023/07/24 04:11:14;;;;;;;;;4.00;4.00;;;;;20.49;68.07;100021.38;5053757;28;45410;-69
2023/07/24 04:13:40;;;;;;;;;3.67;2.00;;;;;20.49;68.12;100027.72;5072761;28;44997;-70
2023/07/24 04:16:05;;;;;;;;;5.67;3.00;;;;;20.33;68.47;100010.94;5071918;28;45579;-69
2023/07/24 04:18:31;;;;;;;;;4.67;4.67;;;;;20.41;68.93;100029.75;5070716;28;44961;-69
2023/07/24 04:20:56;;;;;;;;;3.00;3.00;;;;;20.43;69.26;100031.47;5066984;28;45083;-69
2023/07/24 04:23:22;;;;;;;;;4.00;3.00;;;;;20.12;69.36;99978.94;5068318;28;45165;-70
2023/07/24 04:25:49;;;;;;;;;3.00;2.67;;;;;20.35;69.19;100024.47;5072624;28;46653;-71
2023/07/24 04:28:14;;;;;;;;;6.00;3.00;;;;;20.38;69.43;100032.53;5074246;28;45132;-69
2023/07/24 04:30:40;;;;;;;;;2.00;2.00;;;;;20.28;69.55;100011.97;5055873;28;44964;-69
2023/07/24 04:33:05;;;;;;;;;2.00;2.00;;;;;20.25;69.71;100012.97;5073793;28;45146;-69
2023/07/24 04:35:30;;;;;;;;;5.00;5.00;;;;;20.00;69.90;99972.88;5073281;28;45103;-69
2023/07/24 04:37:57;;;;;;;;;2.67;2.67;;;;;20.21;70.08;100011.22;5071449;28;45311;-69
2023/07/24 04:40:22;;;;;;;;;4.33;4.00;;;;;20.22;70.38;100019.34;5073804;28;44910;-69
2023/07/24 04:42:48;;;;;;;;;2.33;2.00;;;;;20.24;70.11;100022.94;5055679;28;45098;-69
2023/07/24 04:45:13;;;;;;;;;3.67;2.00;;;;;20.23;70.06;100031.09;5055059;28;52359;-69
2023/07/24 04:47:38;;;;;;;;;2.00;2.00;;;;;20.19;70.43;100015.81;5072774;28;45412;-70
2023/07/24 04:50:04;;;;;;;;;3.00;2.00;;;;;20.15;70.00;100014.13;5074513;28;45282;-71
2023/07/24 04:52:30;;;;;;;;;3.00;3.00;;;;;20.23;70.03;100023.84;5072739;28;45135;-68
2023/07/24 04:54:55;;;;;;;;;4.00;2.67;;;;;20.27;70.09;100030.06;5065629;28;45509;-70
2023/07/24 04:57:21;;;;;;;;;1.00;1.00;;;;;20.28;69.57;100026.44;5072978;28;54977;-70
2023/07/24 04:59:46;;;;;;;;;3.00;3.00;;;;;20.28;69.19;100031.88;5053570;28;45079;-69
2023/07/24 05:02:11;;;;;;;;;4.00;3.00;;;;;20.23;69.03;100018.41;5067604;28;45292;-69
2023/07/24 05:04:37;;;;;;;;;2.33;2.33;;;;;20.32;69.08;100038.09;5050809;28;47743;-70
2023/07/24 05:07:02;;;;;;;;;1.67;1.00;;;;;20.32;68.70;100022.72;5071261;28;45225;-70
2023/07/24 05:09:28;;;;;;;;;3.00;3.00;;;;;20.37;68.39;100028.03;5072627;28;44874;-69
2023/07/24 05:11:53;;;;;;;;;3.00;3.00;;;;;20.35;67.86;100030.78;5071949;28;45248;-71
2023/07/24 05:14:18;;;;;;;;;2.33;2.33;;;;;20.42;67.57;100035.09;5069428;28;45164;-69
2023/07/24 05:16:44;;;;;;;;;3.00;3.00;;;;;20.47;67.21;100028.69;5070148;28;45114;-69
2023/07/24 05:19:09;;;;;;;;;2.00;2.00;;;;;20.34;66.85;100010.03;5063261;28;44665;-69
2023/07/24 05:21:34;;;;;;;;;4.67;3.00;;;;;20.42;66.89;100024.25;5069348;28;44953;-69
2023/07/24 05:24:00;;;;;;;;;2.00;2.00;;;;;20.48;66.46;100027.75;5065977;28;45767;-69
2023/07/24 05:26:25;;;;;;;;;2.33;2.00;;;;;20.54;66.22;100028.50;5070901;28;50714;-69
2023/07/24 05:28:52;;;;;;;;;3.33;3.00;;;;;20.57;65.86;100016.66;5065265;28;45352;-70
2023/07/24 05:31:18;;;;;;;;;3.67;1.00;;;;;20.50;65.80;100004.19;5068680;28;44975;-69
2023/07/24 05:33:43;;;;;;;;;2.00;2.00;;;;;20.60;65.27;100019.28;5069411;28;45946;-70
2023/07/24 05:36:08;;;;;;;;;2.00;2.00;;;;;20.55;65.20;100003.13;5071057;28;46865;-68
2023/07/24 05:38:34;;;;;;;;;2.67;2.67;;;;;20.56;64.46;100009.47;5071668;28;44956;-69
2023/07/24 05:41:01;;;;;;;;;2.00;2.00;;;;;20.59;64.52;100012.97;5072710;28;45112;-69
2023/07/24 05:43:27;;;;;;;;;2.00;2.00;;;;;20.48;64.20;100000.63;5072476;28;45667;-70
2023/07/24 05:45:53;;;;;;;;;1.00;1.00;;;;;20.60;63.62;100032.84;5072481;28;45272;-69
2023/07/24 05:48:19;;;;;;;;;4.00;2.67;;;;;20.61;63.42;100026.50;5069850;28;45196;-70
2023/07/24 05:50:45;;;;;;;;;1.00;1.00;;;;;20.60;63.29;100019.28;5066668;28;45651;-69
2023/07/24 05:53:10;;;;;;;;;2.00;2.00;;;;;20.65;63.33;100011.06;5066330;28;46041;-69
2023/07/24 05:55:35;;;;;;;;;2.00;2.00;;;;;20.68;62.36;100009.16;5051244;28;45041;-69
2023/07/24 05:58:01;;;;;;;;;1.00;1.00;;;;;20.64;61.61;100011.97;5058919;28;45221;-70
2023/07/24 06:00:26;;;;;;;;;1.67;1.67;;;;;20.71;61.73;100013.63;5061912;28;45410;-69
2023/07/24 06:02:53;;;;;;;;;4.33;2.00;;;;;20.73;61.68;100023.47;5066133;28;45430;-69
2023/07/24 06:05:19;;;;;;;;;1.00;1.00;;;;;20.40;61.14;99974.56;5067567;28;45584;-68
2023/07/24 06:07:45;;;;;;;;;1.33;1.33;;;;;20.66;60.81;100030.03;5057290;28;45243;-69
2023/07/24 06:10:11;;;;;;;;;1.00;1.00;;;;;20.64;60.76;100030.97;5053296;28;45409;-70
2023/07/24 06:12:36;;;;;;;;;1.67;0.67;;;;;20.57;60.18;100033.84;5069181;28;45801;-71
2023/07/24 06:15:03;;;;;;;;;3.67;3.00;;;;;20.56;60.57;100031.16;5065429;28;45145;-69
2023/07/24 06:17:28;;;;;;;;;2.00;2.00;;;;;20.59;59.94;100044.63;5065388;28;45150;-70
2023/07/24 06:19:54;;;;;;;;;3.33;1.00;;;;;20.50;59.36;100018.63;5068261;28;45125;-71
2023/07/24 06:22:19;;;;;;;;;3.00;1.00;;;;;20.51;58.75;100027.66;5070188;28;45649;-70
2023/07/24 06:24:44;;;;;;;;;2.33;1.00;;;;;20.56;58.78;100040.19;5071472;28;45054;-72
2023/07/24 06:27:10;;;;;;;;;1.00;1.00;;;;;20.57;58.48;100035.63;5070892;28;45214;-70
2023/07/24 06:29:35;;;;;;;;;2.67;2.67;;;;;20.66;58.55;100042.72;5069069;28;45137;-68
2023/07/24 06:32:00;;;;;;;;;1.33;1.00;;;;;20.70;58.43;100033.53;5067954;28;45155;-70
2023/07/24 06:34:26;;;;;;;;;2.67;2.33;;;;;20.77;57.70;100049.63;5050204;28;45225;-74
2023/07/24 06:36:51;;;;;;;;;1.00;1.00;;;;;20.80;56.92;100049.56;5069157;28;45424;-71
2023/07/24 06:39:16;;;;;;;;;1.00;1.00;;;;;20.85;56.47;100038.53;5051057;28;45677;-73
2023/07/24 06:41:42;;;;;;;;;2.00;1.33;;;;;20.78;56.72;100004.34;5067832;28;45943;-73
2023/07/24 06:44:08;;;;;;;;;3.00;1.00;;;;;20.95;56.32;100036.47;5061974;28;46658;-74
2023/07/24 06:46:33;;;;;;;;;1.00;1.00;;;;;21.02;55.61;100037.19;5052454;28;48234;-73
2023/07/24 06:48:58;;;;;;;;;2.33;1.00;;;;;21.04;55.72;100028.06;5070410;28;45057;-73
2023/07/24 06:51:24;;;;;;;;;4.67;2.67;;;;;21.17;55.37;100036.75;5066297;28;46496;-73
2023/07/24 06:53:49;;;;;;;;;8.00;3.00;;;;;21.28;55.50;100040.06;5047712;28;45562;-73
2023/07/24 06:56:15;;;;;;;;;4.00;4.00;;;;;21.30;54.80;100031.84;5068028;28;45132;-74
2023/07/24 06:58:40;;;;;;;;;1.00;1.00;;;;;21.31;54.78;100026.38;5068711;28;45056;-74
2023/07/24 07:01:06;;;;;;;;;5.00;2.33;;;;;21.36;54.29;100042.53;5067615;28;46796;-74
2023/07/24 07:03:34;;;;;;;;;5.33;2.00;;;;;21.29;54.35;100028.25;5065692;28;45171;-72
2023/07/24 07:06:00;;;;;;;;;4.00;2.00;;;;;20.93;54.44;99971.34;5059361;28;45393;-74
2023/07/24 07:08:26;;;;;;;;;5.00;5.00;;;;;21.26;53.91;100033.75;5070327;28;44961;-73
2023/07/24 07:10:58;;;;;;;;;2.00;2.00;;;;;21.28;54.04;100039.16;5070247;28;45345;-74
2023/07/24 07:13:24;;;;;;;;;2.67;2.00;;;;;21.26;53.97;100044.63;5071558;28;44960;-74
2023/07/24 07:15:49;;;;;;;;;3.33;3.00;;;;;21.27;53.94;100034.69;5050290;28;45482;-73
2023/07/24 07:18:14;;;;;;;;;2.00;1.00;;;;;21.31;54.12;100041.78;5053037;28;45403;-73
2023/07/24 07:20:46;;;;;;;;;3.00;3.00;;;;;21.32;54.03;100039.03;5052166;28;46018;-74
2023/07/24 07:23:11;;;;;;;;;3.00;2.00;;;;;21.23;53.51;100025.69;5068809;28;45008;-73
2023/07/24 07:25:38;;;;;;;;;4.00;1.00;;;;;21.35;53.26;100041.66;5071082;28;45044;-74
2023/07/24 07:28:03;;;;;;;;;2.33;2.00;;;;;21.35;53.89;100033.50;5070868;28;44964;-73
2023/07/24 07:30:29;;;;;;;;;1.00;1.00;;;;;21.45;53.72;100038.66;5071267;28;45218;-73
2023/07/24 07:32:54;;;;;;;;;1.00;1.00;;;;;21.54;53.75;100044.72;5071395;28;45301;-74
2023/07/24 07:35:19;;;;;;;;;2.33;1.33;;;;;21.56;53.78;100028.38;5070864;28;45416;-74
2023/07/24 07:37:45;;;;;;;;;2.00;1.00;;;;;21.56;53.63;100036.53;5068754;28;44959;-73
2023/07/24 07:40:12;;;;;;;;;3.67;2.00;;;;;21.56;53.95;100022.94;5074176;28;46278;-73
2023/07/24 07:42:37;;;;;;;;;2.33;1.00;;;;;21.67;53.88;100041.66;5055132;28;45142;-72
2023/07/24 07:45:03;;;;;;;;;3.67;2.00;;;;;21.68;53.76;100038.00;5071887;28;45636;-74
2023/07/24 07:47:28;;;;;;;;;2.00;2.00;;;;;21.69;53.23;100051.53;5054147;28;45150;-74
2023/07/24 07:49:54;;;;;;;;;2.00;2.00;;;;;21.66;52.78;100057.09;5073040;28;46333;-74
2023/07/24 07:52:21;;;;;;;;;1.50;1.50;;;;;21.61;52.38;100044.56;5070904;28;45386;-73
2023/07/24 07:54:48;;;;;;;;;1.33;1.33;;;;;21.64;51.89;100056.22;5055265;28;45145;-73
2023/07/24 07:57:14;;;;;;;;;2.00;2.00;;;;;21.58;51.44;100055.53;5073133;28;44944;-73
2023/07/24 07:59:39;;;;;;;;;2.00;1.33;;;;;21.58;51.11;100051.00;5072986;28;45692;-74
2023/07/24 08:02:05;;;;;;;;;2.00;2.00;;;;;21.51;51.71;100050.28;5073385;28;45067;-73
2023/07/24 08:04:30;;;;;;;;;2.67;2.00;;;;;21.47;51.58;100040.44;5072550;28;45344;-74
2023/07/24 08:06:55;;;;;;;;;2.00;2.00;;;;;21.51;51.81;100049.38;5072177;28;45320;-73
2023/07/24 08:09:21;;;;;;;;;1.67;1.67;;;;;21.52;51.29;100046.63;5072146;28;54837;-74
2023/07/24 08:11:47;;;;;;;;;2.67;1.00;;;;;21.55;51.54;100048.38;5072417;28;44909;-74
2023/07/24 08:14:12;;;;;;;;;2.00;2.00;;;;;21.59;51.33;100051.88;5072005;28;45255;-73
2023/07/24 08:16:38;;;;;;;;;2.00;2.00;;;;;21.59;50.86;100050.03;5071919;28;45473;-75
2023/07/24 08:19:05;;;;;;;;;1.33;1.33;;;;;21.55;51.14;100048.38;5072502;28;46054;-75
2023/07/24 08:21:30;;;;;;;;;2.00;2.00;;;;;21.45;50.55;100025.97;5072515;28;44980;-74
2023/07/24 08:23:57;;;;;;;;;1.33;1.33;;;;;21.66;50.83;100059.81;5071934;28;45104;-74
2023/07/24 08:26:24;;;;;;;;;2.00;2.00;;;;;21.75;50.15;100061.34;5066198;28;45155;-73
2023/07/24 08:28:49;;;;;;;;;1.33;1.33;;;;;21.77;49.63;100062.19;5074381;28;45415;-72
2023/07/24 08:31:15;;;;;;;;;3.00;1.33;;;;;21.69;49.79;100043.38;5073786;28;45337;-73
2023/07/24 08:33:40;;;;;;;;;1.00;1.00;;;;;21.78;49.39;100060.34;5074145;28;45526;-75
2023/07/24 08:36:07;;;;;;;;;2.33;1.33;;;;;21.85;48.63;100053.78;5071533;28;45131;-72
2023/07/24 08:38:34;;;;;;;;;2.00;2.00;;;;;21.93;48.91;100048.09;5066845;28;45405;-73
2023/07/24 08:41:07;;;;;;;;;2.00;1.00;;;;;21.79;48.34;100013.19;5072589;28;45345;-73
2023/07/24 08:43:35;;;;;;;;;3.67;3.00;;;;;22.08;48.09;100053.06;5050388;28;45254;-74
2023/07/24 08:46:01;;;;;;;;;1.00;1.00;;;;;21.94;47.97;100030.84;5067816;28;45039;-74
2023/07/24 08:48:38;;;;;;;;;5.00;4.00;;;;;22.02;48.38;100058.69;5066753;28;45661;-72
2023/07/24 08:51:05;;;;;;;;;2.33;2.33;;;;;22.10;47.78;100048.44;5073993;28;45080;-73
2023/07/24 08:53:33;;;;;;;;;4.00;2.00;;;;;22.18;47.01;100042.78;5056164;28;45069;-72
2023/07/24 08:55:59;;;;;;;;;4.33;1.33;;;;;22.34;46.40;100054.97;5071381;28;45145;-74
2023/07/24 08:58:25;;;;;;;;;2.00;2.00;;;;;22.34;46.38;100054.06;5072614;28;46118;-73
2023/07/24 09:00:51;;;;;;;;;4.00;3.00;;;;;22.39;46.18;100060.22;5069584;28;45335;-74
2023/07/24 09:03:18;;;;;;;;;3.33;2.00;;;;;22.44;46.23;100063.72;5070536;28;45207;-73
2023/07/24 09:05:44;;;;;;;;;3.00;1.33;;;;;22.53;45.48;100055.22;5072380;28;45295;-72
2023/07/24 09:08:09;;;;;;;;;2.00;1.00;;;;;22.57;45.76;100048.75;5070360;28;45664;-74
2023/07/24 09:10:34;;;;;;;;;1.33;1.33;;;;;22.64;46.21;100063.91;5073645;28;45135;-73
2023/07/24 09:13:03;;;;;;;;;1.67;1.67;;;;;22.60;45.25;100062.25;5073612;28;45400;-74
2023/07/24 09:15:29;;;;;;;;;2.00;2.00;;;;;22.62;44.91;100049.47;5054753;28;45322;-73
2023/07/24 09:17:54;;;;;;;;;3.00;3.00;;;;;22.60;44.19;100040.47;5054072;28;47470;-73
2023/07/24 09:20:20;;;;;;;;;5.00;3.67;;;;;22.73;44.25;100053.66;5073100;28;45030;-73
2023/07/24 09:22:53;;;;;;;;;3.33;1.33;;;;;22.84;43.79;100073.22;5072864;28;45104;-73
2023/07/24 09:25:29;;;;;;;;;5.00;2.00;;;;;22.89;43.90;100064.91;5072209;28;45104;-74
2023/07/24 09:27:54;;;;;;;;;2.00;2.00;;;;;22.90;43.20;100058.47;5072054;28;45660;-73
2023/07/24 09:30:23;;;;;;;;;2.67;2.67;;;;;22.91;42.66;100050.25;5063969;28;45619;-73
2023/07/24 09:32:52;;;;;;;;;4.33;2.00;;;;;22.94;42.93;100062.91;5072442;28;45219;-73
2023/07/24 09:35:19;;;;;;;;;2.00;2.00;;;;;22.98;43.54;100070.91;5073082;28;45202;-71
2023/07/24 09:37:45;;;;;;;;;2.00;2.00;;;;;23.03;43.49;100056.22;5072688;28;45434;-74
2023/07/24 09:40:11;;;;;;;;;2.00;2.00;;;;;23.03;43.68;100059.81;5072542;28;45181;-73
2023/07/24 09:42:37;;;;;;;;;5.33;5.33;;;;;23.02;43.62;100058.06;5071961;28;45175;-73
2023/07/24 09:45:04;;;;;;;;;3.67;2.67;;;;;22.95;43.68;100060.13;5071790;28;45212;-74
2023/07/24 09:47:30;;;;;;;;;4.33;3.00;;;;;22.95;43.93;100068.28;5070814;28;45779;-72
2023/07/24 09:49:56;;;;;;;;;6.33;2.00;;;;;22.95;44.67;100073.75;5070611;28;45231;-72
2023/07/24 09:52:24;;;;;;;;;2.00;2.00;;;;;22.92;44.95;100060.22;5052560;28;45292;-71
2023/07/24 09:55:12;;;;;;;;;2.67;1.33;;;;;22.97;45.03;100073.69;5070543;28;45312;-71
2023/07/24 09:57:37;;;;;;;;;1.00;1.00;;;;;22.97;44.13;100068.25;5070732;28;45464;-73
2023/07/24 10:00:04;;;;;;;;;2.00;2.00;;;;;22.96;44.31;100075.50;5070441;28;45361;-72
2023/07/24 10:02:29;;;;;;;;;1.67;1.67;;;;;22.97;44.80;100071.84;5071846;28;45067;-71
2023/07/24 10:05:14;;;;;;;;;2.00;2.00;;;;;22.95;44.49;100076.47;5069805;28;45231;-75
2023/07/24 10:07:40;;;;;;;;;1.00;1.00;;;;;22.91;44.32;100077.50;5070270;28;45517;-72
2023/07/24 10:10:06;;;;;;;;;2.00;2.00;;;;;22.88;44.88;100072.16;5066448;28;45334;-73
2023/07/24 10:12:33;;;;;;;;;1.00;1.00;;;;;22.92;44.81;100081.13;5065463;28;45448;-71
2023/07/24 10:14:59;;;;;;;;;3.33;2.00;;;;;22.95;43.33;100073.75;5052918;28;45214;-74
2023/07/24 10:17:38;;;;;;;;;2.67;2.67;;;;;23.08;43.36;100079.69;5064736;28;46474;-73
2023/07/24 10:20:05;;;;;;;;;1.33;1.33;;;;;23.10;43.25;100061.44;5066233;28;45222;-71
2023/07/24 10:22:31;;;;;;;;;1.00;1.00;;;;;23.22;43.04;100090.06;5069524;28;45397;-72
2023/07/24 10:24:57;;;;;;;;;3.00;3.00;;;;;23.16;43.11;100069.41;5067538;28;45224;-72
2023/07/24 10:27:26;;;;;;;;;2.00;1.67;;;;;23.24;42.91;100080.00;5069608;28;45341;-74
2023/07/24 10:30:02;;;;;;;;;1.67;0.00;;;;;23.22;43.12;100071.00;5069043;28;45221;-72
2023/07/24 10:32:28;;;;;;;;;2.33;1.00;;;;;23.20;43.16;100070.16;5070271;28;45525;-71
2023/07/24 10:34:59;;;;;;;;;1.00;1.00;;;;;23.25;43.67;100070.88;5065152;28;45016;-73
2023/07/24 10:37:34;;;;;;;;;3.00;2.00;;;;;23.32;43.84;100072.41;5069482;28;45160;-72
2023/07/24 10:39:59;;;;;;;;;1.33;1.33;;;;;23.38;44.18;100074.03;5050680;28;45390;-73
2023/07/24 10:42:24;;;;;;;;;5.33;3.33;;;;;23.44;43.78;100064.72;5065205;28;45407;-72
2023/07/24 10:44:50;;;;;;;;;2.33;2.33;;;;;23.60;43.73;100087.75;5069641;28;45270;-72
2023/07/24 10:47:16;;;;;;;;;3.00;3.00;;;;;23.64;42.87;100073.06;5062656;28;45199;-72
2023/07/24 10:49:49;;;;;;;;;4.00;2.00;;;;;23.67;43.00;100080.22;5066869;28;45780;-72
2023/07/24 10:52:14;;;;;;;;;3.33;2.00;;;;;23.73;42.93;100069.06;5069575;28;45118;-73
2023/07/24 10:54:40;;;;;;;;;2.00;2.00;;;;;23.75;42.97;100094.44;5069724;28;45290;-72
2023/07/24 10:57:05;;;;;;;;;6.00;3.00;;;;;23.63;43.31;100074.00;5068169;28;45655;-73
2023/07/24 10:59:40;;;;;;;;;2.33;2.33;;;;;23.52;43.84;100078.97;5068736;28;45174;-73
2023/07/24 11:02:07;;;;;;;;;2.67;2.67;;;;;23.51;43.85;100093.53;5067293;28;45085;-72
2023/07/24 11:04:33;;;;;;;;;4.00;4.00;;;;;23.55;44.44;100082.47;5067441;28;45241;-73
2023/07/24 11:07:00;;;;;;;;;4.00;3.00;;;;;23.62;43.81;100085.84;5068822;28;47106;-71
2023/07/24 11:09:36;;;;;;;;;4.67;1.67;;;;;23.60;42.37;100079.56;5069427;28;45143;-72
2023/07/24 11:12:16;;;;;;;;;3.00;3.00;;;;;23.54;43.05;100075.25;5071398;28;44980;-72
2023/07/24 11:14:49;;;;;;;;;4.00;4.00;;;;;23.62;43.25;100088.56;5075038;28;45122;-72
2023/07/24 11:17:15;;;;;;;;;2.33;2.33;;;;;23.62;43.29;100084.97;5074468;28;46246;-72
2023/07/24 11:19:40;;;;;;;;;3.00;2.67;;;;;23.69;43.19;100092.84;5073349;28;45285;-74